Aeroporto :
LOGIN :

Iscrizione | Disclaimer

   EN    FR    IT 

 










Sommario :    VFR   VFR Marginale   IFR   IFR Intensivo   IFR Molto Intensivo
Visibilità : 
Base nubi : 
>= 8 km
>= 3000ft
5 / 8 km
1000 / 3000 ft
1500m / 5 km
500 / 1000 ft
800 / 1500m
200 / 500 ft
< 800m
< 200 ft
Simboli :   Temporali  Nebbia  Neve Forte  Precipitazioni Forti  Vento > 20 kt
SIGMETs :   Varie  Temporali  Ghiacco  Turbolenza  Onda orograficha  Ceneri Vulcaniche






- Altitudine del aeroporto : 296 ft
- Codice IATA : GKE


ETNG - Geilenkirchen

ULTIMO METAR :
  • 212150Z 28003KT 5000 BR FEW001 M04/M04 Q1038

METARs OBSOLETI :
  • 212050Z 17003KT 5000 BR FEW001 M04/M04 Q1039
  • 211950Z 17001KT 4000 BCFG BR FEW000 M03/M04 Q1039

TAF TAF ETNG
Valido dal 21 a 21 ore il 22 a 12 ore UTC


212000Z 2121/2212 VRB02KT 5000 BR BCFG NSC
BECMG 2121/2123 0800 FZFG OVC002
PROB40 2121/2212 0200 VV000
BECMG 2209/2212 2000 -DZ BR BKN003



MetMap, La meteo Aeronautica in un colpo d'occhio ! - Copyright ORBIFLY Dicembre 2007 - Disclaimer

ORBIFLY MET'MAP TEAM :

Programmazione e sviluppo : Alexandra Zaïnal
Concezione : Baudouin d'Aumeries
Aiuto per la programmazione : Marc-Olivier Méhu
Supporto tecnico e logistico : Manuel Goepfert
Aiuto per la traduzione : Arnaldo La Scala

Contatto : metmap@orbifly.com




FONTI E CREDITI :

   NOAA